createdAt,value
2017-12-22T00:00:11.487Z,100.20
2017-12-22T00:01:11.416Z,102.50
2017-12-22T00:02:11.401Z,96.00
2017-12-22T00:03:11.389Z,108.40
2017-12-22T00:04:11.364Z,93.10
2017-12-22T00:05:11.352Z,99.40
2017-12-22T00:06:11.327Z,94.30
2017-12-22T00:07:11.302Z,98.10
2017-12-22T00:08:11.290Z,100.70
2017-12-22T00:09:11.273Z,97.90
2017-12-22T00:10:11.247Z,98.60
2017-12-22T00:11:11.231Z,94.60
2017-12-22T00:12:11.210Z,94.50
2017-12-22T00:13:11.192Z,95.70
2017-12-22T00:14:11.170Z,97.60
2017-12-22T00:15:11.163Z,99.20
2017-12-22T00:16:11.168Z,97.90
2017-12-22T00:17:11.117Z,92.50
2017-12-22T00:18:11.100Z,89.90
2017-12-22T00:19:11.080Z,93.10
2017-12-22T00:20:11.061Z,96.60
2017-12-22T00:21:11.041Z,105.80
2017-12-22T00:22:11.028Z,98.30
2017-12-22T00:23:11.011Z,101.20
2017-12-22T00:24:10.988Z,98.10
2017-12-22T00:25:10.970Z,106.20
2017-12-22T00:26:10.954Z,103.50
2017-12-22T00:27:10.933Z,102.90
2017-12-22T00:28:10.909Z,98.40
2017-12-22T00:29:10.899Z,105.20
2017-12-22T00:30:10.885Z,104.70
2017-12-22T00:31:10.859Z,103.10
2017-12-22T00:32:10.836Z,97.00
2017-12-22T00:33:10.821Z,103.30
2017-12-22T00:34:10.804Z,106.80
2017-12-22T00:35:10.779Z,111.10
2017-12-22T00:36:10.788Z,111.40
2017-12-22T00:37:10.750Z,98.10
2017-12-22T00:38:10.730Z,107.60
2017-12-22T00:39:10.714Z,107.50
2017-12-22T00:40:10.694Z,99.60
2017-12-22T00:41:10.674Z,105.50
2017-12-22T00:42:10.653Z,107.90
2017-12-22T00:43:10.633Z,112.10
2017-12-22T00:44:10.619Z,110.80
2017-12-22T00:45:10.623Z,110.40
2017-12-22T00:46:10.578Z,109.50
2017-12-22T00:47:10.558Z,111.60
2017-12-22T00:48:10.546Z,105.70
2017-12-22T00:49:10.523Z,107.80
2017-12-22T00:50:10.498Z,110.40
2017-12-22T00:51:10.491Z,115.00
2017-12-22T00:52:10.465Z,108.50
2017-12-22T00:53:10.444Z,110.70
2017-12-22T00:54:10.429Z,115.30
2017-12-22T00:55:10.405Z,112.20
2017-12-22T00:56:10.386Z,116.70
2017-12-22T00:57:10.368Z,118.00
2017-12-22T00:58:10.349Z,113.80
2017-12-22T00:59:10.334Z,107.50
2017-12-22T01:00:10.316Z,115.00
2017-12-22T01:01:10.297Z,122.80
2017-12-22T01:02:10.291Z,120.50
2017-12-22T01:03:10.250Z,115.20
2017-12-22T01:04:10.245Z,108.30
2017-12-22T01:05:10.219Z,119.30
2017-12-22T01:06:10.202Z,114.30
2017-12-22T01:07:10.197Z,110.20
2017-12-22T01:08:10.172Z,109.70
2017-12-22T01:09:13.149Z,100.40
2017-12-22T01:10:10.126Z,107.30
2017-12-22T01:11:10.107Z,106.00
2017-12-22T01:12:10.086Z,105.10
2017-12-22T01:13:10.071Z,103.90
2017-12-22T01:14:10.051Z,96.10
2017-12-22T01:15:10.027Z,100.10
2017-12-22T01:16:10.011Z,99.70
2017-12-22T01:17:09.994Z,97.90
2017-12-22T01:18:09.975Z,94.90
2017-12-22T01:19:09.979Z,99.40
2017-12-22T01:20:09.939Z,93.60
2017-12-22T01:21:09.921Z,102.70
2017-12-22T01:22:09.901Z,99.00
2017-12-22T01:23:09.890Z,99.50
2017-12-22T01:24:09.856Z,95.10
2017-12-22T01:25:09.887Z,97.70
2017-12-22T01:26:09.825Z,90.90
2017-12-22T01:27:09.802Z,92.30
2017-12-22T01:28:09.779Z,98.00
2017-12-22T01:29:09.780Z,89.90
2017-12-22T01:30:09.781Z,95.80
2017-12-22T01:31:09.732Z,89.20
2017-12-22T01:32:09.711Z,93.80
2017-12-22T01:33:09.694Z,95.90
2017-12-22T01:34:09.684Z,92.50
2017-12-22T01:35:09.657Z,96.10
2017-12-22T01:36:09.642Z,90.90
2017-12-22T01:37:09.661Z,87.50
2017-12-22T01:38:09.606Z,88.20
2017-12-22T01:39:09.589Z,93.70
2017-12-22T01:40:09.612Z,97.70
2017-12-22T01:41:09.552Z,87.60
2017-12-22T01:42:09.535Z,92.00
2017-12-22T01:43:09.512Z,94.20
2017-12-22T01:44:09.497Z,89.50
2017-12-22T01:45:09.480Z,90.90
2017-12-22T01:46:09.453Z,99.00
2017-12-22T01:47:09.438Z,103.80
2017-12-22T01:48:09.418Z,103.80
2017-12-22T01:49:09.403Z,99.00
2017-12-22T01:50:09.379Z,102.50
2017-12-22T01:51:09.366Z,103.20
2017-12-22T01:52:09.353Z,101.90
2017-12-22T01:53:09.331Z,103.90
2017-12-22T01:54:09.310Z,99.60
2017-12-22T01:55:09.287Z,105.80
2017-12-22T01:56:09.264Z,102.30
2017-12-22T01:57:09.251Z,105.00
2017-12-22T01:58:09.233Z,108.60
2017-12-22T01:59:09.213Z,103.60
2017-12-22T02:00:09.199Z,101.70
2017-12-22T02:01:09.246Z,108.00
2017-12-22T02:02:09.155Z,106.00
2017-12-22T02:03:09.139Z,103.90
2017-12-22T02:04:09.114Z,103.70
2017-12-22T02:05:09.118Z,111.00
2017-12-22T02:06:09.108Z,114.60
2017-12-22T02:07:09.066Z,108.80
2017-12-22T02:08:09.043Z,108.30
2017-12-22T02:09:09.037Z,103.90
2017-12-22T02:10:09.009Z,104.20
2017-12-22T02:11:08.993Z,102.50
2017-12-22T02:12:08.968Z,105.70
2017-12-22T02:13:08.954Z,109.80
2017-12-22T02:14:08.952Z,108.50
2017-12-22T02:15:08.916Z,112.40
2017-12-22T02:16:08.907Z,114.70
2017-12-22T02:17:08.896Z,114.70
2017-12-22T02:18:08.861Z,118.40
2017-12-22T02:19:08.851Z,113.70
2017-12-22T02:20:08.830Z,110.10
2017-12-22T02:21:08.812Z,120.80
2017-12-22T02:22:08.802Z,118.10
2017-12-22T02:23:08.775Z,119.40
2017-12-22T02:24:08.747Z,125.30
2017-12-22T02:25:08.758Z,129.80
2017-12-22T02:26:08.732Z,123.60
2017-12-22T02:27:08.699Z,119.70
2017-12-22T02:28:08.679Z,114.90
2017-12-22T02:29:08.663Z,115.00
2017-12-22T02:30:08.652Z,112.30
2017-12-22T02:31:08.625Z,120.60
2017-12-22T02:32:08.610Z,120.80
2017-12-22T02:33:08.593Z,124.00
2017-12-22T02:34:08.569Z,118.70
2017-12-22T02:35:08.552Z,116.70
2017-12-22T02:36:08.542Z,120.90
2017-12-22T02:37:08.522Z,128.90
2017-12-22T02:38:08.496Z,124.80
2017-12-22T02:39:08.478Z,124.10
2017-12-22T02:40:08.460Z,134.50
2017-12-22T02:41:08.446Z,132.80
2017-12-22T02:42:08.431Z,135.90
2017-12-22T02:43:08.402Z,127.80
2017-12-22T02:44:08.386Z,123.00
2017-12-22T02:45:08.366Z,128.00
2017-12-22T02:46:08.354Z,127.70
2017-12-22T02:47:08.327Z,129.70
2017-12-22T02:48:08.317Z,126.40
2017-12-22T02:49:08.303Z,124.20
2017-12-22T02:50:08.276Z,135.00
2017-12-22T02:51:08.261Z,146.20
2017-12-22T02:52:08.239Z,149.60
2017-12-22T02:53:08.219Z,138.40
2017-12-22T02:54:08.202Z,143.60
2017-12-22T02:55:08.219Z,150.00
2017-12-22T02:56:08.165Z,133.90
2017-12-22T02:57:08.153Z,154.40
2017-12-22T02:58:08.133Z,148.10
2017-12-22T02:59:08.113Z,146.40
2017-12-22T03:00:08.089Z,150.40
2017-12-22T03:01:08.067Z,147.60
2017-12-22T03:02:08.063Z,154.80
2017-12-22T03:03:08.033Z,141.70
2017-12-22T03:04:08.039Z,149.40
2017-12-22T03:05:08.004Z,146.80
2017-12-22T03:06:07.985Z,145.70
2017-12-22T03:07:07.999Z,154.70
2017-12-22T03:08:07.943Z,152.50
2017-12-22T03:09:07.927Z,164.90
2017-12-22T03:10:07.908Z,155.00
2017-12-22T03:11:07.994Z,149.90
2017-12-22T03:12:07.876Z,152.70
2017-12-22T03:13:07.850Z,154.80
2017-12-22T03:14:07.836Z,146.60
2017-12-22T03:15:07.818Z,146.60
2017-12-22T03:16:07.802Z,153.10
2017-12-22T03:17:07.781Z,149.10
2017-12-22T03:18:07.784Z,146.00
2017-12-22T03:19:07.748Z,151.70
2017-12-22T03:20:07.735Z,157.60
2017-12-22T03:21:07.704Z,149.10
2017-12-22T03:22:07.689Z,146.40
2017-12-22T03:23:07.674Z,154.90
2017-12-22T03:24:07.664Z,154.60
2017-12-22T03:25:07.638Z,155.10
2017-12-22T03:26:07.614Z,156.50
2017-12-22T03:27:07.596Z,153.90
2017-12-22T03:28:07.588Z,130.30
2017-12-22T03:29:07.560Z,149.20
2017-12-22T03:30:07.543Z,144.90
2017-12-22T03:31:07.529Z,147.00
2017-12-22T03:32:07.505Z,148.10
2017-12-22T03:33:07.494Z,143.40
2017-12-22T03:34:07.475Z,152.10
2017-12-22T03:35:07.456Z,149.70
2017-12-22T03:36:07.439Z,150.00
2017-12-22T03:37:07.415Z,151.30
2017-12-22T03:38:07.396Z,151.30
2017-12-22T03:39:07.384Z,145.50
2017-12-22T03:40:07.362Z,152.10
2017-12-22T03:41:07.343Z,151.20
2017-12-22T03:42:07.326Z,156.00
2017-12-22T03:43:07.313Z,144.40
2017-12-22T03:44:07.287Z,142.30
2017-12-22T03:45:07.266Z,145.40
2017-12-22T03:46:07.260Z,135.10
2017-12-22T03:47:07.232Z,137.00
2017-12-22T03:48:07.215Z,137.80
2017-12-22T03:49:07.199Z,141.10
2017-12-22T03:50:07.182Z,138.90
2017-12-22T03:51:07.162Z,143.80
2017-12-22T03:52:07.140Z,147.10
2017-12-22T03:53:07.190Z,142.00
2017-12-22T03:54:07.120Z,138.30
2017-12-22T03:55:07.082Z,142.60
2017-12-22T03:56:07.067Z,144.10
2017-12-22T03:57:07.048Z,141.10
2017-12-22T03:58:07.033Z,140.00
2017-12-22T03:59:07.020Z,134.90
2017-12-22T04:00:07.025Z,137.50
2017-12-22T04:01:06.976Z,134.10
2017-12-22T04:02:06.978Z,139.30
2017-12-22T04:03:06.947Z,129.00
2017-12-22T04:04:06.925Z,133.60
2017-12-22T04:05:06.908Z,125.00
2017-12-22T04:06:06.888Z,137.30
2017-12-22T04:07:06.868Z,131.60
2017-12-22T04:08:06.849Z,143.60
2017-12-22T04:09:06.836Z,142.50
2017-12-22T04:10:06.894Z,132.60
2017-12-22T04:11:06.791Z,140.50
2017-12-22T04:12:06.780Z,152.10
2017-12-22T04:13:06.762Z,133.60
2017-12-22T04:14:06.743Z,136.80
2017-12-22T04:15:06.721Z,140.70
2017-12-22T04:16:06.719Z,124.90
2017-12-22T04:17:06.694Z,143.50
2017-12-22T04:18:06.671Z,137.20
2017-12-22T04:19:06.648Z,130.80
2017-12-22T04:20:06.677Z,134.10
2017-12-22T04:21:06.646Z,135.40
2017-12-22T04:22:06.603Z,130.20
2017-12-22T04:23:06.593Z,133.10
2017-12-22T04:24:06.563Z,132.80
2017-12-22T04:25:06.542Z,136.70
2017-12-22T04:26:06.524Z,137.90
2017-12-22T04:27:06.507Z,135.70
2017-12-22T04:28:06.487Z,133.50
2017-12-22T04:29:06.467Z,130.60
2017-12-22T04:30:06.450Z,124.00
2017-12-22T04:31:06.432Z,132.10
2017-12-22T04:32:06.417Z,133.30
2017-12-22T04:33:06.390Z,125.50
2017-12-22T04:34:06.382Z,131.90
2017-12-22T04:35:06.356Z,132.10
2017-12-22T04:36:06.372Z,123.20
2017-12-22T04:37:06.386Z,120.90
2017-12-22T04:38:06.298Z,130.40
2017-12-22T04:39:06.306Z,126.70
2017-12-22T04:40:06.286Z,124.00
2017-12-22T04:41:06.258Z,139.40
2017-12-22T04:42:06.231Z,136.30
2017-12-22T04:43:06.245Z,131.40
2017-12-22T04:44:06.215Z,133.00
2017-12-22T04:45:06.181Z,139.30
2017-12-22T04:46:06.167Z,132.10
2017-12-22T04:47:06.178Z,129.60
2017-12-22T04:48:06.127Z,137.40
2017-12-22T04:49:06.138Z,132.50
2017-12-22T04:50:06.088Z,124.50
2017-12-22T04:51:06.086Z,130.20
2017-12-22T04:52:06.059Z,136.20
2017-12-22T04:53:06.077Z,138.20
2017-12-22T04:54:06.015Z,133.80
2017-12-22T04:55:06.047Z,127.70
2017-12-22T04:56:05.988Z,128.60
2017-12-22T04:57:05.976Z,119.70
2017-12-22T04:58:05.948Z,134.30
2017-12-22T04:59:05.929Z,124.60
2017-12-22T05:00:05.923Z,121.40
2017-12-22T05:01:05.887Z,125.30
2017-12-22T05:02:05.908Z,124.40
2017-12-22T05:03:05.866Z,125.90
2017-12-22T05:04:05.859Z,128.70
2017-12-22T05:05:05.814Z,130.50
2017-12-22T05:06:05.807Z,131.30
2017-12-22T05:07:05.779Z,129.40
2017-12-22T05:08:05.771Z,125.40
2017-12-22T05:09:05.769Z,132.40
2017-12-22T05:10:05.725Z,127.30
2017-12-22T05:11:05.714Z,136.10
2017-12-22T05:12:05.689Z,128.30
2017-12-22T05:13:05.670Z,139.10
2017-12-22T05:14:05.646Z,127.50
2017-12-22T05:15:05.634Z,138.60
2017-12-22T05:16:05.623Z,151.80
2017-12-22T05:17:05.617Z,144.90
2017-12-22T05:18:05.590Z,142.40
2017-12-22T05:19:05.565Z,136.30
2017-12-22T05:20:05.545Z,143.80
2017-12-22T05:21:05.527Z,148.10
2017-12-22T05:22:05.513Z,157.00
2017-12-22T05:23:05.494Z,143.40
2017-12-22T05:24:05.476Z,143.50
2017-12-22T05:25:05.457Z,130.70
2017-12-22T05:26:05.435Z,122.00
2017-12-22T05:27:05.422Z,117.90
2017-12-22T05:28:05.399Z,124.30
2017-12-22T05:29:05.376Z,130.20
2017-12-22T05:30:05.361Z,129.00
2017-12-22T05:31:05.341Z,138.00
2017-12-22T05:32:05.338Z,132.10
2017-12-22T05:33:05.300Z,125.40
2017-12-22T05:34:05.307Z,126.20
2017-12-22T05:35:05.283Z,132.40
2017-12-22T05:36:05.253Z,130.70
2017-12-22T05:37:05.235Z,129.00
2017-12-22T05:38:05.212Z,123.10
2017-12-22T05:39:05.213Z,124.50
2017-12-22T05:40:05.181Z,117.00
2017-12-22T05:41:05.163Z,134.50
2017-12-22T05:42:05.226Z,117.00
2017-12-22T05:43:05.126Z,128.80
2017-12-22T05:44:05.143Z,136.30
2017-12-22T05:45:05.126Z,137.30
2017-12-22T05:46:05.080Z,130.30
2017-12-22T05:47:05.065Z,134.10
2017-12-22T05:48:05.029Z,137.40
2017-12-22T05:49:05.051Z,130.00
2017-12-22T05:50:05.014Z,132.20
2017-12-22T05:51:04.974Z,132.80
2017-12-22T05:52:04.957Z,137.60
2017-12-22T05:53:04.995Z,137.10
2017-12-22T05:54:04.928Z,146.80
2017-12-22T05:55:04.919Z,138.40
2017-12-22T05:56:04.898Z,133.60
2017-12-22T05:57:04.867Z,135.20
2017-12-22T05:58:04.855Z,133.50
2017-12-22T05:59:04.846Z,132.10
2017-12-22T06:00:04.812Z,139.40
2017-12-22T06:01:04.795Z,138.30
2017-12-22T06:02:04.791Z,126.40
2017-12-22T06:03:04.794Z,144.10
2017-12-22T06:04:04.752Z,144.30
2017-12-22T06:05:04.750Z,129.20
2017-12-22T06:06:04.735Z,130.90
2017-12-22T06:07:04.701Z,133.10
2017-12-22T06:08:04.684Z,128.90
2017-12-22T06:09:04.659Z,129.30
2017-12-22T06:10:04.645Z,132.80
2017-12-22T06:11:04.620Z,135.30
2017-12-22T06:12:04.598Z,126.70
2017-12-22T06:13:04.585Z,127.70
2017-12-22T06:14:04.568Z,130.30
2017-12-22T06:15:04.543Z,125.00
2017-12-22T06:16:04.528Z,127.70
2017-12-22T06:17:04.509Z,125.40
2017-12-22T06:18:04.482Z,138.40
2017-12-22T06:19:04.468Z,152.10
2017-12-22T06:20:04.451Z,148.50
2017-12-22T06:21:04.450Z,140.60
2017-12-22T06:22:04.464Z,149.90
2017-12-22T06:23:04.422Z,142.40
2017-12-22T06:24:04.371Z,139.90
2017-12-22T06:25:04.368Z,134.40
2017-12-22T06:26:04.350Z,126.70
2017-12-22T06:27:04.326Z,139.50
2017-12-22T06:28:04.306Z,136.10
2017-12-22T06:29:04.289Z,137.30
2017-12-22T06:30:04.280Z,133.60
2017-12-22T06:31:04.245Z,141.20
2017-12-22T06:32:04.282Z,144.60
2017-12-22T06:33:04.214Z,139.40
2017-12-22T06:34:04.195Z,133.30
2017-12-22T06:35:04.217Z,144.30
2017-12-22T06:36:04.158Z,142.40
2017-12-22T06:37:04.141Z,151.60
2017-12-22T06:38:04.124Z,147.20
2017-12-22T06:39:04.194Z,153.40
2017-12-22T06:40:04.121Z,158.80
2017-12-22T06:41:04.076Z,158.30
2017-12-22T06:42:04.066Z,160.70
2017-12-22T06:43:04.064Z,170.90
2017-12-22T06:44:04.018Z,163.00
2017-12-22T06:45:04.013Z,163.10
2017-12-22T06:46:04.066Z,162.40
2017-12-22T06:47:03.973Z,163.30
2017-12-22T06:48:03.982Z,163.50
2017-12-22T06:49:03.911Z,161.60
2017-12-22T06:50:03.896Z,169.20
2017-12-22T06:51:03.916Z,165.40
2017-12-22T06:52:03.944Z,166.00
2017-12-22T06:53:03.852Z,157.20
2017-12-22T06:54:03.841Z,159.70
2017-12-22T06:55:03.859Z,169.50
2017-12-22T06:56:03.791Z,167.10
2017-12-22T06:57:03.788Z,169.60
2017-12-22T06:58:03.787Z,171.80
2017-12-22T06:59:03.747Z,168.70
2017-12-22T07:00:03.744Z,180.60
2017-12-22T07:01:03.713Z,168.70
2017-12-22T07:02:03.685Z,185.40
2017-12-22T07:03:03.680Z,179.90
2017-12-22T07:04:03.790Z,188.60
2017-12-22T07:05:03.614Z,174.00
2017-12-22T07:06:03.602Z,196.70
2017-12-22T07:07:03.584Z,198.50
2017-12-22T07:08:03.570Z,182.80
2017-12-22T07:09:03.558Z,186.30
2017-12-22T07:10:03.537Z,174.80
2017-12-22T07:11:03.516Z,196.40
2017-12-22T07:12:03.504Z,187.10
2017-12-22T07:13:03.467Z,201.30
2017-12-22T07:14:03.454Z,207.50
2017-12-22T07:15:03.498Z,201.50
2017-12-22T07:16:03.426Z,204.40
2017-12-22T07:17:03.401Z,210.40
2017-12-22T07:18:03.381Z,212.80
2017-12-22T07:19:03.366Z,223.50
2017-12-22T07:20:03.347Z,216.30
2017-12-22T07:21:03.324Z,227.40
2017-12-22T07:22:03.314Z,249.60
2017-12-22T07:23:03.312Z,244.50
2017-12-22T07:24:03.268Z,263.30
2017-12-22T07:25:03.262Z,267.90
2017-12-22T07:26:03.240Z,249.60
2017-12-22T07:27:03.236Z,263.80
2017-12-22T07:28:03.233Z,258.10
2017-12-22T07:29:03.176Z,248.70
2017-12-22T07:30:03.168Z,254.50
2017-12-22T07:31:03.281Z,256.80
2017-12-22T07:32:03.124Z,270.80
2017-12-22T07:33:03.099Z,250.60
2017-12-22T07:34:03.099Z,280.30
2017-12-22T07:35:03.182Z,276.40
2017-12-22T07:36:03.044Z,273.70
2017-12-22T07:37:03.028Z,292.20
2017-12-22T07:38:03.061Z,263.30
2017-12-22T07:39:03.120Z,280.30
2017-12-22T07:40:02.983Z,291.00
2017-12-22T07:41:02.964Z,266.10
2017-12-22T07:42:02.968Z,293.80
2017-12-22T07:43:02.936Z,295.00
2017-12-22T07:44:02.981Z,265.60
2017-12-22T07:45:02.878Z,291.60
2017-12-22T07:46:02.909Z,303.40
2017-12-22T07:47:02.859Z,309.50
2017-12-22T07:48:02.821Z,301.60
2017-12-22T07:49:02.821Z,298.10
2017-12-22T07:50:02.797Z,308.10
2017-12-22T07:51:02.815Z,296.90
2017-12-22T07:52:02.822Z,319.70
2017-12-22T07:53:02.840Z,307.60
2017-12-22T07:54:02.732Z,298.30
2017-12-22T07:55:02.743Z,337.50
2017-12-22T07:56:02.697Z,332.20
2017-12-22T07:57:02.659Z,330.80
2017-12-22T07:58:02.649Z,358.60
2017-12-22T07:59:02.745Z,360.40
2017-12-22T08:00:02.682Z,346.90
2017-12-22T08:01:02.585Z,360.00
2017-12-22T08:02:02.585Z,350.90
2017-12-22T08:03:02.581Z,384.40
2017-12-22T08:04:02.596Z,359.00
2017-12-22T08:05:02.575Z,393.40
2017-12-22T08:06:02.508Z,402.60
2017-12-22T08:07:02.500Z,356.10
2017-12-22T08:08:02.596Z,381.60
2017-12-22T08:09:02.465Z,355.80
2017-12-22T08:10:02.425Z,342.80
2017-12-22T08:11:02.395Z,367.60
2017-12-22T08:12:02.384Z,392.60
2017-12-22T08:13:02.361Z,402.40
2017-12-22T08:14:02.346Z,354.30
2017-12-22T08:15:02.345Z,367.60
2017-12-22T08:16:02.327Z,348.30
2017-12-22T08:17:02.286Z,398.60
2017-12-22T08:18:02.333Z,344.00
2017-12-22T08:19:02.381Z,359.20
2017-12-22T08:20:02.251Z,375.30
2017-12-22T08:21:02.230Z,348.00
2017-12-22T08:22:02.263Z,363.00
2017-12-22T08:23:02.212Z,378.90
2017-12-22T08:24:03.155Z,302.00
2017-12-22T08:25:02.243Z,330.40
2017-12-22T08:26:02.128Z,337.90
2017-12-22T08:27:02.161Z,334.20
2017-12-22T08:28:02.123Z,321.20
2017-12-22T08:29:02.100Z,311.70
2017-12-22T08:30:02.045Z,310.40
2017-12-22T08:31:02.062Z,306.20
2017-12-22T08:32:02.657Z,340.40
2017-12-22T08:33:02.663Z,286.80
2017-12-22T08:34:01.999Z,326.10
2017-12-22T08:35:01.995Z,310.80
2017-12-22T08:36:02.000Z,343.00
2017-12-22T08:37:01.982Z,310.20
2017-12-22T08:38:01.969Z,297.40
2017-12-22T08:39:01.900Z,356.40
2017-12-22T08:40:01.985Z,322.80
2017-12-22T08:41:01.870Z,321.90
2017-12-22T08:42:01.829Z,322.70
2017-12-22T08:43:01.821Z,314.70
2017-12-22T08:44:01.814Z,328.50
2017-12-22T08:45:01.794Z,279.00
2017-12-22T08:46:01.758Z,285.40
2017-12-22T08:47:01.762Z,304.40
2017-12-22T08:48:01.738Z,304.20
2017-12-22T08:49:01.715Z,292.20
2017-12-22T08:50:01.689Z,316.50
2017-12-22T08:51:01.683Z,306.80
2017-12-22T08:52:01.666Z,308.80
2017-12-22T08:53:01.656Z,300.30
2017-12-22T08:54:01.642Z,330.60
2017-12-22T08:55:01.601Z,320.70
2017-12-22T08:56:01.598Z,318.90
2017-12-22T08:57:01.562Z,326.20
2017-12-22T08:58:01.547Z,350.10
2017-12-22T08:59:01.543Z,322.40
2017-12-22T09:00:01.550Z,349.30
2017-12-22T09:01:01.538Z,352.80
2017-12-22T09:02:01.475Z,374.00
2017-12-22T09:03:01.460Z,389.90
2017-12-22T09:04:01.462Z,381.50
2017-12-22T09:05:01.426Z,365.50
2017-12-22T09:06:01.455Z,342.00
2017-12-22T09:07:01.386Z,331.80
2017-12-22T09:08:01.420Z,352.30
2017-12-22T09:09:01.489Z,333.60
2017-12-22T09:10:01.359Z,339.20
2017-12-22T09:11:01.321Z,367.40
2017-12-22T09:12:01.313Z,276.90
2017-12-22T09:13:01.284Z,276.90
2017-12-22T09:14:01.260Z,315.30
2017-12-22T09:15:01.273Z,297.30
2017-12-22T09:16:01.232Z,286.80
2017-12-22T09:17:01.241Z,287.10
2017-12-22T09:18:01.250Z,279.20
2017-12-22T09:19:01.187Z,253.00
2017-12-22T09:20:01.242Z,242.60
2017-12-22T09:21:01.199Z,231.10
2017-12-22T09:22:01.123Z,235.70
2017-12-22T09:23:01.117Z,227.70
2017-12-22T09:24:01.086Z,227.10
2017-12-22T09:25:01.123Z,219.50
2017-12-22T09:26:01.079Z,204.40
2017-12-22T09:27:01.671Z,208.00
2017-12-22T09:28:01.053Z,202.70
2017-12-22T09:29:01.103Z,189.60
2017-12-22T09:30:01.670Z,181.10
2017-12-22T09:31:01.101Z,202.30
2017-12-22T09:32:00.958Z,187.10
2017-12-22T09:33:00.937Z,171.90
2017-12-22T09:34:00.977Z,181.80
2017-12-22T09:35:00.936Z,176.40
2017-12-22T09:36:00.897Z,167.60
2017-12-22T09:37:00.867Z,156.40
2017-12-22T09:38:00.870Z,157.60
2017-12-22T09:39:00.848Z,142.50
2017-12-22T09:40:00.895Z,149.00
2017-12-22T09:41:00.809Z,159.50
2017-12-22T09:42:00.791Z,152.40
2017-12-22T09:43:00.784Z,150.40
2017-12-22T09:44:00.725Z,158.90
2017-12-22T09:45:00.716Z,151.70
2017-12-22T09:46:00.701Z,153.90
2017-12-22T09:47:01.178Z,149.10
2017-12-22T09:48:00.664Z,151.40
2017-12-22T09:49:00.644Z,148.30
2017-12-22T09:50:01.180Z,137.00
2017-12-22T09:51:00.687Z,139.00
2017-12-22T09:52:00.583Z,137.50
2017-12-22T09:53:00.594Z,126.10
2017-12-22T09:54:00.564Z,141.10
2017-12-22T09:55:00.565Z,140.30
2017-12-22T09:56:01.176Z,131.50
2017-12-22T09:57:00.491Z,136.60
2017-12-22T09:58:00.594Z,137.00
2017-12-22T09:59:00.532Z,124.50
2017-12-22T10:00:00.449Z,129.90
2017-12-22T10:01:00.454Z,131.10
2017-12-22T10:02:00.421Z,113.90
2017-12-22T10:03:00.466Z,119.30
2017-12-22T10:04:00.397Z,121.20
2017-12-22T10:05:00.393Z,117.00
2017-12-22T10:06:00.417Z,108.90
2017-12-22T10:07:00.333Z,97.80
2017-12-22T10:08:00.310Z,100.00
2017-12-22T10:09:00.350Z,93.00
2017-12-22T10:10:00.293Z,96.30
2017-12-22T10:11:00.258Z,97.60
2017-12-22T10:12:00.263Z,96.00
2017-12-22T10:13:00.230Z,100.70
2017-12-22T10:14:00.281Z,99.90
2017-12-22T10:15:00.215Z,97.20
2017-12-22T10:16:00.201Z,85.80
2017-12-22T10:17:00.162Z,102.30
2017-12-22T10:18:00.157Z,90.30
2017-12-22T10:19:00.216Z,102.00
2017-12-22T10:20:00.143Z,95.50
2017-12-22T10:21:00.160Z,88.40
2017-12-22T10:22:00.081Z,89.70
2017-12-22T10:23:00.124Z,92.20
2017-12-22T10:24:00.102Z,98.60
2017-12-22T10:25:00.093Z,89.30
2017-12-22T10:26:00.010Z,94.90
2017-12-22T10:26:59.999Z,87.70
2017-12-22T10:27:59.971Z,92.70
2017-12-22T10:28:59.962Z,95.30
2017-12-22T10:29:59.991Z,102.20
2017-12-22T10:31:00.034Z,98.10
2017-12-22T10:31:59.960Z,100.40
2017-12-22T10:33:00.044Z,100.00
2017-12-22T10:33:59.940Z,111.40
2017-12-22T10:34:59.865Z,105.40
2017-12-22T10:35:59.834Z,104.50
2017-12-22T10:36:59.811Z,96.00
2017-12-22T10:37:59.826Z,90.20
2017-12-22T10:39:00.834Z,101.10
2017-12-22T10:39:59.802Z,102.60
2017-12-22T10:40:59.802Z,107.80
2017-12-22T10:41:59.737Z,117.00
2017-12-22T10:42:59.884Z,123.40
2017-12-22T10:43:59.734Z,114.20
2017-12-22T10:44:59.710Z,112.90
2017-12-22T10:45:59.703Z,99.70
2017-12-22T10:46:59.652Z,104.70
2017-12-22T10:47:59.699Z,101.40
2017-12-22T10:48:59.614Z,107.20
2017-12-22T10:49:59.597Z,100.90
2017-12-22T10:50:59.710Z,114.60
2017-12-22T10:51:59.614Z,104.50
2017-12-22T10:52:59.559Z,88.20
2017-12-22T10:53:59.699Z,90.50
2017-12-22T10:55:00.195Z,95.40
2017-12-22T10:55:59.534Z,88.80
2017-12-22T10:56:59.543Z,92.70
2017-12-22T10:57:59.465Z,88.90
2017-12-22T10:58:59.461Z,93.00
2017-12-22T11:00:00.198Z,89.50
2017-12-22T11:00:59.428Z,94.50
2017-12-22T11:01:59.410Z,88.80
2017-12-22T11:02:59.417Z,85.20
2017-12-22T11:03:59.348Z,89.20
2017-12-22T11:04:59.327Z,94.00
2017-12-22T11:05:59.308Z,92.40
2017-12-22T11:07:00.205Z,92.80
2017-12-22T11:07:59.309Z,90.40
2017-12-22T11:08:59.265Z,98.30
2017-12-22T11:09:59.242Z,88.80
2017-12-22T11:10:59.254Z,89.90
2017-12-22T11:11:59.204Z,81.50
2017-12-22T11:12:59.225Z,88.40
2017-12-22T11:13:59.265Z,92.30
2017-12-22T11:14:59.410Z,96.40
2017-12-22T11:15:59.136Z,97.90
2017-12-22T11:16:59.145Z,100.80
2017-12-22T11:17:59.224Z,102.90
2017-12-22T11:18:59.105Z,83.60
2017-12-22T11:19:59.084Z,87.80
2017-12-22T11:20:59.097Z,80.50
2017-12-22T11:21:59.071Z,77.10
2017-12-22T11:22:59.027Z,82.00
2017-12-22T11:23:59.003Z,79.50
2017-12-22T11:24:58.996Z,90.60
2017-12-22T11:25:58.999Z,80.50
2017-12-22T11:26:58.983Z,79.30
2017-12-22T11:27:58.945Z,77.00
2017-12-22T11:28:58.914Z,78.80
2017-12-22T11:29:58.906Z,84.20
2017-12-22T11:30:58.888Z,90.70
2017-12-22T11:31:58.892Z,89.00
2017-12-22T11:32:58.869Z,84.00
2017-12-22T11:33:58.863Z,82.00
2017-12-22T11:34:58.804Z,84.80
2017-12-22T11:35:58.819Z,78.90
2017-12-22T11:36:58.785Z,84.70
2017-12-22T11:37:58.776Z,80.70
2017-12-22T11:38:58.738Z,79.90
2017-12-22T11:39:58.760Z,90.50
2017-12-22T11:40:58.694Z,90.00
2017-12-22T11:41:58.731Z,94.90
2017-12-22T11:42:58.668Z,84.20
2017-12-22T11:43:58.688Z,77.80
2017-12-22T11:44:58.673Z,72.90
2017-12-22T11:45:58.616Z,76.70
2017-12-22T11:46:58.609Z,85.30
2017-12-22T11:47:58.576Z,84.90
2017-12-22T11:48:58.569Z,86.40
2017-12-22T11:49:58.537Z,80.00
2017-12-22T11:50:58.525Z,86.50
2017-12-22T11:51:58.520Z,90.70
2017-12-22T11:52:58.567Z,88.80
2017-12-22T11:53:58.463Z,83.80
2017-12-22T11:54:58.476Z,83.70
2017-12-22T11:55:58.463Z,79.00
2017-12-22T11:56:58.452Z,77.20
2017-12-22T11:57:58.425Z,72.50
2017-12-22T11:58:58.396Z,72.20
2017-12-22T11:59:58.388Z,75.30
2017-12-22T12:00:58.474Z,76.60
2017-12-22T12:01:58.395Z,68.70
2017-12-22T12:02:58.319Z,73.60
2017-12-22T12:03:58.303Z,77.10
2017-12-22T12:04:58.278Z,67.40
2017-12-22T12:05:58.297Z,63.10
2017-12-22T12:06:58.423Z,63.20
2017-12-22T12:07:58.229Z,63.90
2017-12-22T12:08:58.265Z,57.30
2017-12-22T12:09:58.242Z,60.10
2017-12-22T12:10:58.187Z,55.20
2017-12-22T12:11:58.164Z,57.70
2017-12-22T12:12:58.190Z,63.00
2017-12-22T12:13:58.130Z,60.60
2017-12-22T12:14:58.092Z,62.50
2017-12-22T12:15:58.096Z,64.10
2017-12-22T12:16:58.092Z,62.70
2017-12-22T12:17:58.074Z,63.70
2017-12-22T12:18:58.037Z,58.60
2017-12-22T12:19:58.040Z,58.70
2017-12-22T12:20:58.006Z,64.80
2017-12-22T12:21:57.982Z,67.10
2017-12-22T12:22:57.980Z,69.40
2017-12-22T12:23:57.951Z,66.00
2017-12-22T12:24:57.934Z,66.90
2017-12-22T12:25:57.912Z,71.90
2017-12-22T12:26:58.086Z,66.50
2017-12-22T12:27:58.036Z,79.90
2017-12-22T12:28:57.860Z,73.50
2017-12-22T12:29:57.842Z,74.80
2017-12-22T12:30:57.813Z,66.70
2017-12-22T12:31:58.095Z,66.30
2017-12-22T12:32:57.801Z,58.40
2017-12-22T12:33:57.817Z,60.60